sensor_id;sensor_type;location;lat;lon;timestamp;pressure;altitude;pressure_sealevel;temperature;humidity
27040;BME280;14589;51.578;7.306;2023-04-20T05:02:33;101306.94;;;7.12;63.81
27040;BME280;14589;51.578;7.306;2023-04-20T05:05:07;101295.13;;;7.02;64.25
27040;BME280;14589;51.578;7.306;2023-04-20T05:07:38;101307.19;;;7.09;64.35
27040;BME280;14589;51.578;7.306;2023-04-20T05:10:09;101299.09;;;7.09;64.46
27040;BME280;14589;51.578;7.306;2023-04-20T05:12:39;101302.09;;;7.04;64.60
27040;BME280;14589;51.578;7.306;2023-04-20T05:15:10;101308.03;;;7.09;64.69
27040;BME280;14589;51.578;7.306;2023-04-20T05:17:41;101290.69;;;7.01;65.41
27040;BME280;14589;51.578;7.306;2023-04-20T05:20:11;101302.84;;;7.06;64.71
27040;BME280;14589;51.578;7.306;2023-04-20T05:22:41;101297.81;;;7.02;65.49
27040;BME280;14589;51.578;7.306;2023-04-20T05:25:12;101308.59;;;7.02;66.16
27040;BME280;14589;51.578;7.306;2023-04-20T05:27:42;101331.25;;;6.99;66.11
27040;BME280;14589;51.578;7.306;2023-04-20T05:30:12;101313.22;;;7.00;66.52
27040;BME280;14589;51.578;7.306;2023-04-20T05:32:43;101310.78;;;6.97;66.77
27040;BME280;14589;51.578;7.306;2023-04-20T05:35:13;101314.44;;;6.96;67.10
27040;BME280;14589;51.578;7.306;2023-04-20T05:37:43;101307.94;;;6.98;67.61
27040;BME280;14589;51.578;7.306;2023-04-20T05:40:14;101308.72;;;6.87;67.93
27040;BME280;14589;51.578;7.306;2023-04-20T05:42:44;101319.06;;;6.94;69.47
27040;BME280;14589;51.578;7.306;2023-04-20T05:45:15;101319.31;;;6.90;70.51
27040;BME280;14589;51.578;7.306;2023-04-20T05:47:52;101331.16;;;6.88;71.62
27040;BME280;14589;51.578;7.306;2023-04-20T05:50:25;101321.16;;;6.77;72.76
27040;BME280;14589;51.578;7.306;2023-04-20T05:52:55;101333.34;;;6.70;73.79
27040;BME280;14589;51.578;7.306;2023-04-20T05:55:26;101342.06;;;6.61;74.53
27040;BME280;14589;51.578;7.306;2023-04-20T05:57:56;101334.31;;;6.69;74.32
27040;BME280;14589;51.578;7.306;2023-04-20T06:00:27;101341.09;;;6.62;75.59
27040;BME280;14589;51.578;7.306;2023-04-20T06:02:57;101330.84;;;6.55;76.14
27040;BME280;14589;51.578;7.306;2023-04-20T06:05:27;101354.38;;;6.40;77.72
27040;BME280;14589;51.578;7.306;2023-04-20T06:07:58;101340.78;;;6.29;78.82
27040;BME280;14589;51.578;7.306;2023-04-20T06:10:28;101343.91;;;6.23;79.63
27040;BME280;14589;51.578;7.306;2023-04-20T06:13:01;101336.97;;;6.19;79.72
27040;BME280;14589;51.578;7.306;2023-04-20T06:15:31;101325.69;;;6.14;80.17
27040;BME280;14589;51.578;7.306;2023-04-20T06:18:02;101326.34;;;6.17;80.85
27040;BME280;14589;51.578;7.306;2023-04-20T06:20:32;101333.75;;;6.14;81.13
27040;BME280;14589;51.578;7.306;2023-04-20T06:23:03;101336.88;;;6.20;80.92
27040;BME280;14589;51.578;7.306;2023-04-20T06:25:35;101328.03;;;6.18;81.73
27040;BME280;14589;51.578;7.306;2023-04-20T06:28:06;101329.22;;;6.14;81.92
27040;BME280;14589;51.578;7.306;2023-04-20T06:30:36;101332.88;;;6.13;82.50
27040;BME280;14589;51.578;7.306;2023-04-20T06:33:06;101324.91;;;6.12;81.39
27040;BME280;14589;51.578;7.306;2023-04-20T06:35:38;101324.03;;;6.11;81.90
27040;BME280;14589;51.578;7.306;2023-04-20T06:38:09;101333.22;;;6.08;81.92
27040;BME280;14589;51.578;7.306;2023-04-20T06:40:39;101319.94;;;6.05;81.75
27040;BME280;14589;51.578;7.306;2023-04-20T06:43:10;101335.03;;;6.08;81.75
27040;BME280;14589;51.578;7.306;2023-04-20T06:45:40;101310.16;;;6.04;81.64
27040;BME280;14589;51.578;7.306;2023-04-20T06:48:10;101324.38;;;6.06;81.87
27040;BME280;14589;51.578;7.306;2023-04-20T06:50:41;101309.75;;;6.11;81.49
27040;BME280;14589;51.578;7.306;2023-04-20T06:53:11;101325.34;;;6.18;81.05
27040;BME280;14589;51.578;7.306;2023-04-20T06:55:41;101313.72;;;6.18;81.54
27040;BME280;14589;51.578;7.306;2023-04-20T06:58:12;101316.41;;;6.30;81.36
27040;BME280;14589;51.578;7.306;2023-04-20T07:00:43;101305.00;;;6.27;81.55
27040;BME280;14589;51.578;7.306;2023-04-20T07:03:13;101314.06;;;6.38;81.54
27040;BME280;14589;51.578;7.306;2023-04-20T07:05:43;101320.31;;;6.39;80.41
27040;BME280;14589;51.578;7.306;2023-04-20T07:08:14;101314.94;;;6.39;79.52
27040;BME280;14589;51.578;7.306;2023-04-20T07:10:47;101321.59;;;6.46;79.68
27040;BME280;14589;51.578;7.306;2023-04-20T07:13:18;101306.75;;;6.40;79.74
27040;BME280;14589;51.578;7.306;2023-04-20T07:15:48;101311.78;;;6.58;78.88
27040;BME280;14589;51.578;7.306;2023-04-20T07:18:18;101310.06;;;6.57;79.03
27040;BME280;14589;51.578;7.306;2023-04-20T07:20:49;101311.47;;;6.62;79.63
27040;BME280;14589;51.578;7.306;2023-04-20T07:23:19;101314.13;;;6.75;79.55
27040;BME280;14589;51.578;7.306;2023-04-20T07:25:51;101304.66;;;6.69;79.05
27040;BME280;14589;51.578;7.306;2023-04-20T07:28:21;101318.13;;;6.69;78.43
27040;BME280;14589;51.578;7.306;2023-04-20T07:30:51;101302.84;;;6.70;78.22
27040;BME280;14589;51.578;7.306;2023-04-20T07:33:22;101317.69;;;6.75;79.13
27040;BME280;14589;51.578;7.306;2023-04-20T07:35:53;101305.72;;;6.79;78.04
27040;BME280;14589;51.578;7.306;2023-04-20T07:38:23;101293.53;;;6.86;78.08
27040;BME280;14589;51.578;7.306;2023-04-20T07:40:54;101303.53;;;6.97;77.82
27040;BME280;14589;51.578;7.306;2023-04-20T07:43:24;101290.16;;;6.96;77.65
27040;BME280;14589;51.578;7.306;2023-04-20T07:45:54;101291.03;;;6.96;76.81
27040;BME280;14589;51.578;7.306;2023-04-20T07:48:25;101292.63;;;6.99;76.91
27040;BME280;14589;51.578;7.306;2023-04-20T07:50:55;101286.50;;;6.97;76.64
27040;BME280;14589;51.578;7.306;2023-04-20T07:53:26;101300.78;;;7.10;76.16
27040;BME280;14589;51.578;7.306;2023-04-20T07:55:56;101310.41;;;7.14;76.63
27040;BME280;14589;51.578;7.306;2023-04-20T07:58:27;101286.78;;;7.05;76.12
27040;BME280;14589;51.578;7.306;2023-04-20T08:00:57;101284.31;;;7.02;76.66
27040;BME280;14589;51.578;7.306;2023-04-20T08:03:27;101297.56;;;7.05;75.46
27040;BME280;14589;51.578;7.306;2023-04-20T08:05:58;101287.66;;;7.05;76.33
27040;BME280;14589;51.578;7.306;2023-04-20T08:08:29;101289.47;;;7.05;76.17
27040;BME280;14589;51.578;7.306;2023-04-20T08:10:59;101295.19;;;7.13;75.64
27040;BME280;14589;51.578;7.306;2023-04-20T08:13:30;101279.75;;;7.15;76.55
27040;BME280;14589;51.578;7.306;2023-04-20T08:16:01;101270.41;;;7.08;75.91
27040;BME280;14589;51.578;7.306;2023-04-20T08:18:31;101283.44;;;7.14;74.91
27040;BME280;14589;51.578;7.306;2023-04-20T08:21:02;101280.50;;;7.17;75.47
27040;BME280;14589;51.578;7.306;2023-04-20T08:23:32;101267.47;;;7.11;76.09
27040;BME280;14589;51.578;7.306;2023-04-20T08:26:03;101268.44;;;7.10;75.92
27040;BME280;14589;51.578;7.306;2023-04-20T08:28:34;101273.78;;;7.22;74.92
27040;BME280;14589;51.578;7.306;2023-04-20T08:31:04;101267.75;;;7.19;74.72
27040;BME280;14589;51.578;7.306;2023-04-20T08:33:35;101263.97;;;7.21;75.19
27040;BME280;14589;51.578;7.306;2023-04-20T08:36:06;101262.59;;;7.16;75.50
27040;BME280;14589;51.578;7.306;2023-04-20T08:38:36;101265.81;;;7.21;75.54
27040;BME280;14589;51.578;7.306;2023-04-20T08:41:07;101253.50;;;7.17;74.48
27040;BME280;14589;51.578;7.306;2023-04-20T08:43:37;101265.47;;;7.25;74.66
27040;BME280;14589;51.578;7.306;2023-04-20T08:46:08;101255.50;;;7.15;74.40
27040;BME280;14589;51.578;7.306;2023-04-20T08:48:40;101269.84;;;7.15;75.58
27040;BME280;14589;51.578;7.306;2023-04-20T08:51:13;101266.03;;;7.18;76.48
27040;BME280;14589;51.578;7.306;2023-04-20T08:53:44;101271.44;;;7.18;76.16
27040;BME280;14589;51.578;7.306;2023-04-20T08:56:15;101271.13;;;7.10;77.08
27040;BME280;14589;51.578;7.306;2023-04-20T08:58:45;101257.78;;;7.08;77.80
27040;BME280;14589;51.578;7.306;2023-04-20T09:01:26;101282.56;;;7.13;78.04
27040;BME280;14589;51.578;7.306;2023-04-20T09:03:58;101290.13;;;7.08;77.54
27040;BME280;14589;51.578;7.306;2023-04-20T09:06:28;101287.88;;;7.02;77.65
27040;BME280;14589;51.578;7.306;2023-04-20T09:09:00;101320.03;;;6.93;77.05
27040;BME280;14589;51.578;7.306;2023-04-20T09:11:30;101302.13;;;6.91;77.76
27040;BME280;14589;51.578;7.306;2023-04-20T09:14:04;101299.72;;;7.12;77.49
27040;BME280;14589;51.578;7.306;2023-04-20T09:16:36;101300.78;;;7.46;79.74
27040;BME280;14589;51.578;7.306;2023-04-20T09:19:08;101295.22;;;7.71;78.79
27040;BME280;14589;51.578;7.306;2023-04-20T09:21:47;101291.56;;;7.72;74.76
27040;BME280;14589;51.578;7.306;2023-04-20T09:24:22;101294.91;;;7.76;75.78
27040;BME280;14589;51.578;7.306;2023-04-20T09:26:54;101295.41;;;7.81;74.45
27040;BME280;14589;51.578;7.306;2023-04-20T09:29:24;101286.72;;;7.89;73.81
27040;BME280;14589;51.578;7.306;2023-04-20T09:31:54;101295.59;;;8.02;75.67
27040;BME280;14589;51.578;7.306;2023-04-20T09:34:25;101283.84;;;8.14;73.46
27040;BME280;14589;51.578;7.306;2023-04-20T09:36:55;101282.44;;;8.32;74.17
27040;BME280;14589;51.578;7.306;2023-04-20T09:39:26;101291.31;;;8.57;71.70
27040;BME280;14589;51.578;7.306;2023-04-20T09:42:01;101296.44;;;8.60;72.81
27040;BME280;14589;51.578;7.306;2023-04-20T09:44:33;101289.56;;;8.56;72.19
27040;BME280;14589;51.578;7.306;2023-04-20T09:47:14;101299.53;;;8.77;71.11
27040;BME280;14589;51.578;7.306;2023-04-20T09:49:45;101282.31;;;8.78;72.21
27040;BME280;14589;51.578;7.306;2023-04-20T09:52:17;101291.91;;;8.60;71.05
27040;BME280;14589;51.578;7.306;2023-04-20T09:54:49;101271.03;;;8.73;71.29
27040;BME280;14589;51.578;7.306;2023-04-20T09:57:20;101277.78;;;8.79;70.86
27040;BME280;14589;51.578;7.306;2023-04-20T09:59:53;101286.16;;;8.76;70.69
27040;BME280;14589;51.578;7.306;2023-04-20T10:02:23;101279.06;;;9.18;71.71
27040;BME280;14589;51.578;7.306;2023-04-20T10:04:57;101266.75;;;9.25;69.34
27040;BME280;14589;51.578;7.306;2023-04-20T10:07:29;101276.47;;;9.27;68.34
27040;BME280;14589;51.578;7.306;2023-04-20T10:10:09;101266.66;;;9.15;68.57
27040;BME280;14589;51.578;7.306;2023-04-20T10:12:51;101265.28;;;9.21;68.51
27040;BME280;14589;51.578;7.306;2023-04-20T10:15:22;101276.97;;;9.21;67.81
27040;BME280;14589;51.578;7.306;2023-04-20T10:17:54;101261.72;;;9.20;67.96
27040;BME280;14589;51.578;7.306;2023-04-20T10:20:26;101271.81;;;9.18;66.93
27040;BME280;14589;51.578;7.306;2023-04-20T10:23:08;101278.47;;;9.03;67.17
27040;BME280;14589;51.578;7.306;2023-04-20T10:25:39;101262.19;;;8.82;69.49
27040;BME280;14589;51.578;7.306;2023-04-20T10:28:10;101262.88;;;8.96;68.58
27040;BME280;14589;51.578;7.306;2023-04-20T10:30:51;101264.19;;;9.23;66.36
27040;BME280;14589;51.578;7.306;2023-04-20T10:33:21;101263.84;;;9.49;65.53
27040;BME280;14589;51.578;7.306;2023-04-20T10:35:53;101266.84;;;9.66;63.68
27040;BME280;14589;51.578;7.306;2023-04-20T10:38:34;101233.13;;;9.91;64.21
27040;BME280;14589;51.578;7.306;2023-04-20T10:41:05;101254.06;;;10.10;64.20
27040;BME280;14589;51.578;7.306;2023-04-20T10:43:37;101251.53;;;9.77;61.80
27040;BME280;14589;51.578;7.306;2023-04-20T10:46:20;101252.06;;;9.70;61.31
27040;BME280;14589;51.578;7.306;2023-04-20T10:49:00;101255.63;;;9.71;61.93
27040;BME280;14589;51.578;7.306;2023-04-20T10:51:31;101255.81;;;9.58;60.28
27040;BME280;14589;51.578;7.306;2023-04-20T10:54:03;101254.63;;;9.72;60.39
27040;BME280;14589;51.578;7.306;2023-04-20T10:56:41;101246.13;;;9.77;60.12
27040;BME280;14589;51.578;7.306;2023-04-20T10:59:18;101253.53;;;9.74;60.88
27040;BME280;14589;51.578;7.306;2023-04-20T11:01:50;101258.78;;;9.76;62.07
27040;BME280;14589;51.578;7.306;2023-04-20T11:04:31;101247.66;;;9.90;61.79
27040;BME280;14589;51.578;7.306;2023-04-20T11:07:09;101246.88;;;9.99;60.50
27040;BME280;14589;51.578;7.306;2023-04-20T11:09:40;101248.66;;;10.10;59.41
27040;BME280;14589;51.578;7.306;2023-04-20T11:12:12;101232.84;;;10.36;57.81
27040;BME280;14589;51.578;7.306;2023-04-20T11:14:54;101214.91;;;10.94;57.21
27040;BME280;14589;51.578;7.306;2023-04-20T11:17:35;101231.13;;;11.15;56.80
27040;BME280;14589;51.578;7.306;2023-04-20T11:20:09;101229.41;;;11.43;54.30
27040;BME280;14589;51.578;7.306;2023-04-20T11:22:41;101221.44;;;11.51;53.02
27040;BME280;14589;51.578;7.306;2023-04-20T11:25:12;101225.72;;;11.53;52.62
27040;BME280;14589;51.578;7.306;2023-04-20T11:27:43;101224.72;;;11.64;53.07
27040;BME280;14589;51.578;7.306;2023-04-20T11:30:13;101251.47;;;12.07;51.62
27040;BME280;14589;51.578;7.306;2023-04-20T11:32:53;101207.00;;;11.89;50.90
27040;BME280;14589;51.578;7.306;2023-04-20T11:35:23;101218.56;;;12.47;49.91
27040;BME280;14589;51.578;7.306;2023-04-20T11:37:54;101211.34;;;12.19;49.42
27040;BME280;14589;51.578;7.306;2023-04-20T11:40:26;101198.84;;;11.79;50.16
27040;BME280;14589;51.578;7.306;2023-04-20T11:42:57;101218.56;;;12.00;50.49
27040;BME280;14589;51.578;7.306;2023-04-20T11:45:31;101226.13;;;11.68;51.07
27040;BME280;14589;51.578;7.306;2023-04-20T11:48:03;101225.16;;;11.40;52.06
27040;BME280;14589;51.578;7.306;2023-04-20T11:50:34;101226.00;;;11.21;52.23
27040;BME280;14589;51.578;7.306;2023-04-20T11:53:05;101238.09;;;11.08;51.74
27040;BME280;14589;51.578;7.306;2023-04-20T11:55:36;101213.53;;;11.09;52.25
27040;BME280;14589;51.578;7.306;2023-04-20T11:58:07;101204.25;;;11.31;50.98
27040;BME280;14589;51.578;7.306;2023-04-20T12:00:37;101200.63;;;12.17;49.96
27040;BME280;14589;51.578;7.306;2023-04-20T12:03:08;101208.88;;;12.35;48.08
27040;BME280;14589;51.578;7.306;2023-04-20T12:05:38;101209.88;;;12.71;48.03
27040;BME280;14589;51.578;7.306;2023-04-20T12:08:08;101198.06;;;13.07;45.68
27040;BME280;14589;51.578;7.306;2023-04-20T12:10:39;101208.28;;;13.23;45.01
27040;BME280;14589;51.578;7.306;2023-04-20T12:13:10;101197.94;;;13.62;44.65
27040;BME280;14589;51.578;7.306;2023-04-20T12:15:41;101197.69;;;14.16;43.91
27040;BME280;14589;51.578;7.306;2023-04-20T12:18:11;101200.34;;;14.34;42.42
27040;BME280;14589;51.578;7.306;2023-04-20T12:20:42;101215.22;;;14.14;42.16
27040;BME280;14589;51.578;7.306;2023-04-20T12:23:12;101217.28;;;14.12;41.40
27040;BME280;14589;51.578;7.306;2023-04-20T12:25:42;101201.16;;;13.57;41.83
27040;BME280;14589;51.578;7.306;2023-04-20T12:28:13;101200.09;;;13.94;42.34
27040;BME280;14589;51.578;7.306;2023-04-20T12:30:43;101216.91;;;13.89;42.50
27040;BME280;14589;51.578;7.306;2023-04-20T12:33:14;101206.81;;;13.82;43.00
27040;BME280;14589;51.578;7.306;2023-04-20T12:35:45;101212.50;;;14.14;42.38
27040;BME280;14589;51.578;7.306;2023-04-20T12:38:16;101217.34;;;14.02;42.44
27040;BME280;14589;51.578;7.306;2023-04-20T12:40:47;101202.78;;;14.71;41.13
27040;BME280;14589;51.578;7.306;2023-04-20T12:43:20;101232.63;;;14.98;39.94
27040;BME280;14589;51.578;7.306;2023-04-20T12:45:50;101218.72;;;14.24;41.74
27040;BME280;14589;51.578;7.306;2023-04-20T12:48:20;101215.88;;;14.34;41.89
27040;BME280;14589;51.578;7.306;2023-04-20T12:50:51;101238.94;;;14.65;40.83
27040;BME280;14589;51.578;7.306;2023-04-20T12:53:22;101240.56;;;13.45;43.86
27040;BME280;14589;51.578;7.306;2023-04-20T12:55:52;101236.47;;;13.04;43.53
27040;BME280;14589;51.578;7.306;2023-04-20T12:58:22;101219.75;;;12.99;44.35
27040;BME280;14589;51.578;7.306;2023-04-20T13:00:53;101227.13;;;13.34;44.19
27040;BME280;14589;51.578;7.306;2023-04-20T13:03:23;101212.97;;;13.66;44.37
27040;BME280;14589;51.578;7.306;2023-04-20T13:05:54;101206.44;;;14.02;42.93
27040;BME280;14589;51.578;7.306;2023-04-20T13:08:24;101220.34;;;13.91;43.71
27040;BME280;14589;51.578;7.306;2023-04-20T13:10:55;101210.88;;;13.42;43.57
27040;BME280;14589;51.578;7.306;2023-04-20T13:13:25;101208.19;;;13.15;44.59
27040;BME280;14589;51.578;7.306;2023-04-20T13:15:55;101200.75;;;13.70;44.12
27040;BME280;14589;51.578;7.306;2023-04-20T13:18:26;101210.16;;;13.75;42.95
27040;BME280;14589;51.578;7.306;2023-04-20T13:20:57;101227.34;;;13.23;43.81
27040;BME280;14589;51.578;7.306;2023-04-20T13:23:27;101216.38;;;12.87;44.29
27040;BME280;14589;51.578;7.306;2023-04-20T13:25:58;101203.16;;;13.20;44.91
27040;BME280;14589;51.578;7.306;2023-04-20T13:28:30;101210.97;;;13.05;44.28
27040;BME280;14589;51.578;7.306;2023-04-20T13:31:01;101203.94;;;13.12;43.75
27040;BME280;14589;51.578;7.306;2023-04-20T13:33:31;101203.94;;;13.03;44.46
27040;BME280;14589;51.578;7.306;2023-04-20T13:36:02;101202.16;;;12.93;44.35
27040;BME280;14589;51.578;7.306;2023-04-20T13:38:33;101201.38;;;13.28;43.86
27040;BME280;14589;51.578;7.306;2023-04-20T13:41:04;101180.69;;;13.35;42.83
27040;BME280;14589;51.578;7.306;2023-04-20T13:43:34;101185.34;;;14.56;40.43
27040;BME280;14589;51.578;7.306;2023-04-20T13:46:04;101169.97;;;14.55;39.05
27040;BME280;14589;51.578;7.306;2023-04-20T13:48:35;101174.25;;;15.16;37.94
27040;BME280;14589;51.578;7.306;2023-04-20T13:51:05;101172.94;;;15.44;36.16
27040;BME280;14589;51.578;7.306;2023-04-20T13:53:36;101182.38;;;15.74;34.46
27040;BME280;14589;51.578;7.306;2023-04-20T13:56:06;101179.72;;;16.37;34.30
27040;BME280;14589;51.578;7.306;2023-04-20T13:58:37;101169.19;;;15.94;34.88
27040;BME280;14589;51.578;7.306;2023-04-20T14:01:11;101148.59;;;16.30;33.93
27040;BME280;14589;51.578;7.306;2023-04-20T14:03:42;101162.19;;;16.54;33.41
27040;BME280;14589;51.578;7.306;2023-04-20T14:06:12;101149.41;;;15.59;34.61
27040;BME280;14589;51.578;7.306;2023-04-20T14:08:43;101172.91;;;15.28;35.47
27040;BME280;14589;51.578;7.306;2023-04-20T14:11:13;101159.25;;;15.12;35.74
27040;BME280;14589;51.578;7.306;2023-04-20T14:13:44;101148.41;;;14.94;36.22
27040;BME280;14589;51.578;7.306;2023-04-20T14:16:14;101148.16;;;15.29;36.09
27040;BME280;14589;51.578;7.306;2023-04-20T14:18:45;101156.41;;;14.37;36.85
27040;BME280;14589;51.578;7.306;2023-04-20T14:21:15;101140.19;;;14.78;36.53
27040;BME280;14589;51.578;7.306;2023-04-20T14:23:46;101168.69;;;14.15;37.42
27040;BME280;14589;51.578;7.306;2023-04-20T14:26:19;101150.63;;;13.63;38.53
27040;BME280;14589;51.578;7.306;2023-04-20T14:28:50;101157.78;;;13.90;37.97
27040;BME280;14589;51.578;7.306;2023-04-20T14:31:21;101156.19;;;13.79;38.53
27040;BME280;14589;51.578;7.306;2023-04-20T14:33:51;101140.56;;;13.89;38.41
27040;BME280;14589;51.578;7.306;2023-04-20T14:36:22;101152.66;;;14.12;38.28
27040;BME280;14589;51.578;7.306;2023-04-20T14:38:52;101130.06;;;13.94;38.36
27040;BME280;14589;51.578;7.306;2023-04-20T14:41:24;101153.75;;;13.94;38.33
27040;BME280;14589;51.578;7.306;2023-04-20T14:43:54;101141.97;;;13.93;38.73
27040;BME280;14589;51.578;7.306;2023-04-20T14:46:25;101147.19;;;13.61;38.86
27040;BME280;14589;51.578;7.306;2023-04-20T14:48:55;101125.88;;;13.56;38.80
27040;BME280;14589;51.578;7.306;2023-04-20T14:51:26;101132.22;;;13.65;38.74
27040;BME280;14589;51.578;7.306;2023-04-20T14:53:57;101121.91;;;13.76;38.80
27040;BME280;14589;51.578;7.306;2023-04-20T14:56:27;101129.66;;;13.46;39.47
27040;BME280;14589;51.578;7.306;2023-04-20T14:58:58;101121.88;;;13.68;39.45
27040;BME280;14589;51.578;7.306;2023-04-20T15:01:28;101124.84;;;13.40;39.37
27040;BME280;14589;51.578;7.306;2023-04-20T15:03:59;101120.03;;;13.33;39.83
27040;BME280;14589;51.578;7.306;2023-04-20T15:06:30;101122.09;;;13.14;41.32
27040;BME280;14589;51.578;7.306;2023-04-20T15:09:01;101119.09;;;13.07;40.61
27040;BME280;14589;51.578;7.306;2023-04-20T15:11:32;101113.31;;;13.10;40.72
27040;BME280;14589;51.578;7.306;2023-04-20T15:14:03;101131.75;;;12.81;40.22
27040;BME280;14589;51.578;7.306;2023-04-20T15:16:33;101127.03;;;12.83;40.64
27040;BME280;14589;51.578;7.306;2023-04-20T15:19:04;101122.25;;;12.85;41.26
27040;BME280;14589;51.578;7.306;2023-04-20T15:21:34;101110.38;;;12.86;41.14
27040;BME280;14589;51.578;7.306;2023-04-20T15:24:05;101104.25;;;13.02;41.52
27040;BME280;14589;51.578;7.306;2023-04-20T15:26:35;101098.09;;;13.00;42.04
27040;BME280;14589;51.578;7.306;2023-04-20T15:29:05;101094.75;;;12.88;41.83
27040;BME280;14589;51.578;7.306;2023-04-20T15:31:36;101105.63;;;12.88;42.17
27040;BME280;14589;51.578;7.306;2023-04-20T15:34:06;101093.00;;;12.51;41.68
27040;BME280;14589;51.578;7.306;2023-04-20T15:36:37;101099.59;;;12.67;42.46
27040;BME280;14589;51.578;7.306;2023-04-20T15:39:07;101100.44;;;12.49;43.27
27040;BME280;14589;51.578;7.306;2023-04-20T15:41:37;101078.69;;;12.49;43.79
27040;BME280;14589;51.578;7.306;2023-04-20T15:44:08;101101.53;;;12.29;43.15
27040;BME280;14589;51.578;7.306;2023-04-20T15:46:38;101086.81;;;12.32;43.36
27040;BME280;14589;51.578;7.306;2023-04-20T15:49:08;101089.53;;;12.32;43.73
27040;BME280;14589;51.578;7.306;2023-04-20T15:51:39;101093.50;;;12.37;42.86
27040;BME280;14589;51.578;7.306;2023-04-20T15:54:09;101087.34;;;12.35;43.53
27040;BME280;14589;51.578;7.306;2023-04-20T15:56:40;101090.25;;;12.24;43.48
27040;BME280;14589;51.578;7.306;2023-04-20T15:59:10;101107.94;;;12.38;44.62
27040;BME280;14589;51.578;7.306;2023-04-20T16:01:41;101101.13;;;12.34;45.40
27040;BME280;14589;51.578;7.306;2023-04-20T16:04:11;101084.53;;;12.27;45.53
27040;BME280;14589;51.578;7.306;2023-04-20T16:06:42;101096.53;;;12.34;45.99
27040;BME280;14589;51.578;7.306;2023-04-20T16:09:12;101094.75;;;12.43;46.20
27040;BME280;14589;51.578;7.306;2023-04-20T16:11:43;101103.31;;;12.48;46.27
27040;BME280;14589;51.578;7.306;2023-04-20T16:14:13;101097.16;;;12.19;46.71
27040;BME280;14589;51.578;7.306;2023-04-20T16:16:44;101103.22;;;12.40;46.77
27040;BME280;14589;51.578;7.306;2023-04-20T16:19:14;101094.50;;;12.36;46.90
27040;BME280;14589;51.578;7.306;2023-04-20T16:21:44;101091.28;;;12.50;46.14
27040;BME280;14589;51.578;7.306;2023-04-20T16:24:15;101093.44;;;12.47;45.10
27040;BME280;14589;51.578;7.306;2023-04-20T16:26:45;101090.28;;;12.51;45.49
27040;BME280;14589;51.578;7.306;2023-04-20T16:29:15;101101.44;;;12.48;45.79
27040;BME280;14589;51.578;7.306;2023-04-20T16:31:46;101091.31;;;12.41;46.54
27040;BME280;14589;51.578;7.306;2023-04-20T16:34:16;101089.38;;;12.33;46.20
27040;BME280;14589;51.578;7.306;2023-04-20T16:36:47;101118.28;;;12.34;46.49
27040;BME280;14589;51.578;7.306;2023-04-20T16:39:19;101090.47;;;12.13;46.86
27040;BME280;14589;51.578;7.306;2023-04-20T16:41:49;101101.22;;;12.05;46.95
27040;BME280;14589;51.578;7.306;2023-04-20T16:44:20;101106.97;;;12.02;47.78
27040;BME280;14589;51.578;7.306;2023-04-20T16:46:50;101113.34;;;12.10;46.96
27040;BME280;14589;51.578;7.306;2023-04-20T16:49:21;101123.34;;;11.83;48.15
27040;BME280;14589;51.578;7.306;2023-04-20T16:51:51;101125.66;;;11.78;47.92
27040;BME280;14589;51.578;7.306;2023-04-20T16:54:21;101134.06;;;11.55;48.67
27040;BME280;14589;51.578;7.306;2023-04-20T16:56:52;101140.19;;;11.67;48.52
27040;BME280;14589;51.578;7.306;2023-04-20T16:59:22;101141.81;;;11.31;50.83
27040;BME280;14589;51.578;7.306;2023-04-20T17:01:53;101146.41;;;11.21;51.73
27040;BME280;14589;51.578;7.306;2023-04-20T17:04:23;101152.66;;;10.92;52.50
27040;BME280;14589;51.578;7.306;2023-04-20T17:06:54;101157.94;;;10.84;52.70
27040;BME280;14589;51.578;7.306;2023-04-20T17:09:24;101177.47;;;10.78;53.29
27040;BME280;14589;51.578;7.306;2023-04-20T17:11:55;101182.56;;;10.62;55.80
27040;BME280;14589;51.578;7.306;2023-04-20T17:14:26;101169.25;;;10.49;56.10
27040;BME280;14589;51.578;7.306;2023-04-20T17:16:56;101171.50;;;10.35;58.79
27040;BME280;14589;51.578;7.306;2023-04-20T17:19:26;101170.31;;;10.28;60.64
27040;BME280;14589;51.578;7.306;2023-04-20T17:21:59;101172.63;;;10.32;61.69
27040;BME280;14589;51.578;7.306;2023-04-20T17:24:32;101171.50;;;10.35;62.53
27040;BME280;14589;51.578;7.306;2023-04-20T17:27:02;101177.88;;;10.24;61.98
27040;BME280;14589;51.578;7.306;2023-04-20T17:29:33;101183.16;;;10.05;64.69
27040;BME280;14589;51.578;7.306;2023-04-20T17:32:07;101173.03;;;10.07;64.29
27040;BME280;14589;51.578;7.306;2023-04-20T17:34:38;101179.59;;;10.04;65.49
27040;BME280;14589;51.578;7.306;2023-04-20T17:37:09;101173.66;;;9.90;66.30
27040;BME280;14589;51.578;7.306;2023-04-20T17:39:41;101187.66;;;9.95;68.99
27040;BME280;14589;51.578;7.306;2023-04-20T17:42:11;101181.91;;;9.88;68.61
27040;BME280;14589;51.578;7.306;2023-04-20T17:44:42;101184.03;;;9.64;69.67
27040;BME280;14589;51.578;7.306;2023-04-20T17:47:12;101175.91;;;9.64;69.33
27040;BME280;14589;51.578;7.306;2023-04-20T17:49:44;101191.16;;;9.65;70.00
27040;BME280;14589;51.578;7.306;2023-04-20T17:52:14;101202.72;;;9.67;72.14
27040;BME280;14589;51.578;7.306;2023-04-20T17:54:48;101187.25;;;9.58;71.35
27040;BME280;14589;51.578;7.306;2023-04-20T17:57:18;101191.91;;;9.67;72.10
27040;BME280;14589;51.578;7.306;2023-04-20T17:59:49;101187.06;;;9.70;73.00
27040;BME280;14589;51.578;7.306;2023-04-20T18:02:19;101175.13;;;9.73;73.06
27040;BME280;14589;51.578;7.306;2023-04-20T18:04:50;101188.25;;;9.78;73.14
27040;BME280;14589;51.578;7.306;2023-04-20T18:07:20;101188.38;;;9.76;72.99
27040;BME280;14589;51.578;7.306;2023-04-20T18:09:51;101183.56;;;9.80;73.90
27040;BME280;14589;51.578;7.306;2023-04-20T18:12:21;101181.84;;;9.79;73.59
27040;BME280;14589;51.578;7.306;2023-04-20T18:14:51;101179.41;;;9.75;73.64
27040;BME280;14589;51.578;7.306;2023-04-20T18:17:22;101184.22;;;9.72;73.93